createdAt,value
2023-05-28T00:01:50.142Z,8.83
2023-05-28T00:05:06.182Z,12.45
2023-05-28T00:08:22.226Z,11.80
2023-05-28T00:11:57.287Z,11.17
2023-05-28T00:15:13.139Z,8.13
2023-05-28T00:18:30.250Z,11.47
2023-05-28T00:21:34.237Z,10.73
2023-05-28T00:24:53.248Z,11.45
2023-05-28T00:28:10.341Z,11.70
2023-05-28T00:31:29.479Z,11.80
2023-05-28T00:34:46.311Z,9.20
2023-05-28T00:38:14.326Z,13.30
2023-05-28T00:41:18.332Z,8.20
2023-05-28T00:44:50.328Z,13.07
2023-05-28T00:48:07.338Z,9.00
2023-05-28T00:51:38.284Z,10.80
2023-05-28T00:54:54.322Z,8.83
2023-05-28T00:58:13.405Z,9.77
2023-05-28T01:01:32.338Z,10.47
2023-05-28T01:04:51.282Z,12.80
2023-05-28T01:07:55.425Z,11.30
2023-05-28T01:11:24.355Z,10.15
2023-05-28T01:14:40.340Z,11.00
2023-05-28T01:18:15.518Z,10.90
2023-05-28T01:21:19.488Z,15.50
2023-05-28T01:24:49.585Z,7.10
2023-05-28T01:28:08.441Z,12.30
2023-05-28T01:31:41.818Z,11.77
2023-05-28T01:35:09.439Z,8.13
2023-05-28T01:38:40.541Z,10.47
2023-05-28T01:42:03.434Z,11.85
2023-05-28T01:45:35.426Z,10.63
2023-05-28T01:49:03.463Z,8.90
2023-05-28T01:52:22.527Z,11.43
2023-05-28T01:55:26.634Z,11.40
2023-05-28T01:58:55.561Z,11.55
2023-05-28T02:01:59.625Z,12.73
2023-05-28T02:05:21.604Z,10.30
2023-05-28T02:08:28.504Z,11.00
2023-05-28T02:11:45.622Z,7.00
2023-05-28T02:15:05.487Z,10.80
2023-05-28T02:18:34.652Z,11.60
2023-05-28T02:21:38.655Z,12.15
2023-05-28T02:25:07.818Z,8.25
2023-05-28T02:28:11.606Z,12.15
2023-05-28T02:31:46.701Z,10.15
2023-05-28T02:34:50.843Z,14.35
2023-05-28T02:38:19.682Z,11.37
2023-05-28T02:41:23.683Z,14.05
2023-05-28T02:44:39.671Z,14.75
2023-05-28T02:48:13.802Z,11.80
2023-05-28T02:51:32.612Z,9.10
2023-05-28T02:54:48.694Z,10.93
2023-05-28T02:58:05.749Z,12.47
2023-05-28T03:01:21.866Z,8.65
2023-05-28T03:04:53.638Z,9.35
2023-05-28T03:08:12.782Z,10.10
2023-05-28T03:11:28.672Z,12.60
2023-05-28T03:14:56.718Z,12.20
2023-05-28T03:18:15.747Z,9.83
2023-05-28T03:21:45.816Z,12.80
2023-05-28T03:25:01.948Z,11.80
2023-05-28T03:28:21.042Z,10.05
2023-05-28T03:31:50.959Z,11.50
2023-05-28T03:35:06.844Z,10.97
2023-05-28T03:38:39.910Z,10.60
2023-05-28T03:42:08.944Z,13.53
2023-05-28T03:45:24.793Z,12.70
2023-05-28T03:48:40.836Z,12.13
2023-05-28T03:51:59.976Z,9.95
2023-05-28T03:55:31.949Z,13.40
2023-05-28T03:58:47.957Z,8.60
2023-05-28T04:02:04.885Z,10.55
2023-05-28T04:05:23.883Z,8.37
2023-05-28T04:08:27.796Z,11.00
2023-05-28T04:12:01.060Z,11.35
2023-05-28T04:15:05.020Z,9.57
2023-05-28T04:18:35.957Z,11.20
2023-05-28T04:21:54.994Z,8.00
2023-05-28T04:25:10.982Z,10.27
2023-05-28T04:28:28.096Z,12.03
2023-05-28T04:31:44.028Z,17.13
2023-05-28T04:34:48.048Z,8.70
2023-05-28T04:38:07.133Z,11.40
2023-05-28T04:41:23.012Z,10.40
2023-05-28T04:44:52.041Z,15.10
2023-05-28T04:48:08.054Z,11.60
2023-05-28T04:51:39.221Z,6.45
2023-05-28T04:54:44.150Z,9.33
2023-05-28T04:57:59.053Z,16.30
2023-05-28T05:01:31.168Z,8.85
2023-05-28T05:04:47.159Z,10.53
2023-05-28T05:08:03.066Z,12.85
2023-05-28T05:11:19.186Z,13.03
2023-05-28T05:14:23.180Z,11.83
2023-05-28T05:17:55.155Z,13.77
2023-05-28T05:21:11.155Z,7.87
2023-05-28T05:24:27.117Z,13.83
2023-05-28T05:27:46.219Z,11.30
2023-05-28T05:31:02.251Z,11.30
2023-05-28T05:34:19.316Z,11.50
2023-05-28T05:37:36.165Z,10.37
2023-05-28T05:40:55.196Z,10.67
2023-05-28T05:44:14.436Z,11.80
2023-05-28T05:47:30.205Z,9.85
2023-05-28T05:51:05.318Z,15.00
2023-05-28T05:54:09.319Z,11.50
2023-05-28T05:57:37.141Z,9.73
2023-05-28T06:00:53.294Z,11.27
2023-05-28T06:04:09.086Z,7.23
2023-05-28T06:07:41.387Z,8.55
2023-05-28T06:11:00.246Z,9.93
2023-05-28T06:14:16.262Z,12.37
2023-05-28T06:17:35.415Z,10.40
2023-05-28T06:20:51.350Z,10.23
2023-05-28T06:24:23.298Z,9.40
2023-05-28T06:27:39.421Z,10.55
2023-05-28T06:31:01.514Z,7.60
2023-05-28T06:34:05.326Z,8.23
2023-05-28T06:37:37.460Z,9.10
2023-05-28T06:41:08.373Z,14.77
2023-05-28T06:44:27.391Z,16.10
2023-05-28T06:47:44.631Z,8.97
2023-05-28T06:51:03.568Z,8.50
2023-05-28T06:54:19.502Z,11.30
2023-05-28T06:57:54.495Z,12.10
2023-05-28T07:01:10.497Z,6.40
2023-05-28T07:04:26.570Z,8.60
2023-05-28T07:07:42.689Z,10.73
2023-05-28T07:11:01.520Z,10.13
2023-05-28T07:14:30.576Z,10.83
2023-05-28T07:17:52.602Z,8.07
2023-05-28T07:21:08.507Z,7.30
2023-05-28T07:24:27.542Z,9.20
2023-05-28T07:27:46.687Z,7.80
2023-05-28T07:31:18.711Z,10.50
2023-05-28T07:34:34.570Z,11.00
2023-05-28T07:37:54.790Z,9.23
2023-05-28T07:40:59.853Z,7.60
2023-05-28T07:44:30.798Z,6.87
2023-05-28T07:47:59.878Z,8.13
2023-05-28T07:51:15.584Z,8.53
2023-05-28T07:54:31.622Z,9.53
2023-05-28T07:58:00.735Z,6.93
2023-05-28T08:01:16.656Z,13.87
2023-05-28T08:04:46.849Z,7.53
2023-05-28T08:08:02.703Z,8.33
2023-05-28T08:11:21.676Z,7.77
2023-05-28T08:14:37.699Z,10.90
2023-05-28T08:17:58.703Z,7.13
2023-05-28T08:21:29.413Z,8.50
2023-05-28T08:24:45.675Z,9.27
2023-05-28T08:28:01.790Z,7.10
2023-05-28T08:31:21.004Z,7.80
2023-05-28T08:34:36.694Z,7.67
2023-05-28T08:38:05.751Z,6.50
2023-05-28T08:41:33.671Z,7.40
2023-05-28T08:45:04.804Z,10.07
2023-05-28T08:48:32.844Z,9.17
2023-05-28T08:52:00.790Z,8.40
2023-05-28T08:55:33.884Z,9.67
2023-05-28T08:59:04.918Z,6.55
2023-05-28T09:02:31.102Z,6.50
2023-05-28T09:05:47.925Z,8.73
2023-05-28T09:09:15.898Z,11.67
2023-05-28T09:12:49.802Z,5.50
2023-05-28T09:16:20.896Z,5.97
2023-05-28T09:19:38.001Z,7.80
2023-05-28T09:22:53.846Z,9.80
2023-05-28T09:26:11.923Z,6.73
2023-05-28T09:29:42.051Z,6.83
2023-05-28T09:33:00.937Z,7.20
2023-05-28T09:36:28.147Z,7.83
2023-05-28T09:39:56.947Z,8.30
2023-05-28T09:43:00.941Z,6.07
2023-05-28T09:46:36.081Z,8.60
2023-05-28T09:49:51.979Z,7.50
2023-05-28T09:53:20.018Z,7.10
2023-05-28T09:56:37.773Z,8.33
2023-05-28T10:00:04.975Z,9.30
2023-05-28T10:03:39.036Z,9.25
2023-05-28T11:18:26.497Z,6.15
2023-05-28T11:28:16.209Z,8.40
2023-05-28T11:31:20.321Z,6.50
2023-05-28T11:34:52.271Z,8.03
2023-05-28T11:38:08.376Z,6.60
2023-05-28T11:41:27.356Z,7.75
2023-05-28T11:44:46.321Z,5.90
2023-05-28T11:48:05.562Z,6.60
2023-05-28T11:51:26.685Z,7.87
2023-05-28T11:54:50.207Z,8.45
2023-05-28T11:57:57.620Z,6.13
2023-05-28T12:01:28.414Z,5.77
2023-05-28T12:04:45.438Z,5.18
2023-05-28T12:08:02.462Z,7.00
2023-05-28T12:11:21.463Z,5.05
2023-05-28T12:17:40.505Z,8.37
2023-05-28T12:20:57.105Z,6.20
2023-05-28T12:24:31.474Z,4.10
2023-05-28T12:27:47.638Z,5.05
2023-05-28T12:31:16.428Z,5.10
2023-05-28T12:34:20.497Z,5.93
2023-05-28T12:37:36.624Z,4.95
2023-05-28T12:40:53.609Z,3.92
2023-05-28T12:44:09.455Z,5.10
2023-05-28T12:47:13.473Z,6.43
2023-05-28T12:50:32.529Z,4.10
2023-05-28T12:53:36.551Z,5.87
2023-05-28T12:57:06.475Z,4.35
2023-05-28T13:00:23.657Z,3.87
2023-05-28T13:03:42.680Z,5.87
2023-05-28T13:06:46.618Z,4.20
2023-05-28T13:10:02.536Z,3.73
2023-05-28T13:13:19.595Z,4.10
2023-05-28T13:16:36.735Z,3.57
2023-05-28T13:19:40.587Z,4.57
2023-05-28T13:23:09.535Z,4.78
2023-05-28T13:26:13.550Z,4.20
2023-05-28T13:29:45.526Z,4.30
2023-05-28T13:32:49.672Z,11.80
2023-05-28T13:36:05.656Z,5.10
2023-05-28T13:39:09.675Z,4.70
2023-05-28T13:42:26.636Z,3.92
2023-05-28T13:45:43.826Z,4.03
2023-05-28T13:48:59.664Z,3.62
2023-05-28T13:52:15.720Z,3.25
2023-05-28T13:55:32.748Z,3.23
2023-05-28T13:58:36.803Z,4.72
2023-05-28T14:02:00.782Z,3.90
2023-05-28T14:05:16.663Z,4.00
2023-05-28T14:08:20.544Z,4.10
2023-05-28T14:12:08.477Z,5.05
2023-05-28T14:14:43.743Z,3.30
2023-05-28T14:18:16.840Z,6.15
2023-05-28T14:21:20.996Z,3.75
2023-05-28T14:24:39.781Z,3.33
2023-05-28T14:27:43.841Z,3.78
2023-05-28T14:31:11.775Z,3.90
2023-05-28T14:34:28.917Z,5.32
2023-05-28T14:37:47.767Z,3.75
2023-05-28T14:40:52.378Z,2.45
2023-05-28T14:44:13.819Z,3.30
2023-05-28T14:47:18.054Z,4.90
2023-05-28T14:50:51.068Z,3.53
2023-05-28T14:53:54.803Z,5.30
2023-05-28T14:57:13.709Z,3.30
2023-05-28T15:00:29.926Z,4.03
2023-05-28T15:03:59.309Z,6.05
2023-05-28T15:07:21.885Z,5.00
2023-05-28T15:10:40.962Z,4.75
2023-05-28T15:13:44.875Z,2.67
2023-05-28T15:17:03.935Z,4.67
2023-05-28T15:20:10.983Z,3.53
2023-05-28T15:23:44.118Z,3.40
2023-05-28T15:26:48.029Z,5.95
2023-05-28T15:30:07.027Z,4.68
2023-05-28T15:33:23.078Z,3.15
2023-05-28T15:36:50.980Z,6.00
2023-05-28T15:40:10.952Z,5.82
2023-05-28T15:43:29.994Z,4.93
2023-05-28T15:46:33.962Z,3.45
2023-05-28T15:50:03.061Z,3.45
2023-05-28T15:56:41.096Z,2.97
2023-05-28T15:59:45.057Z,2.80
2023-05-28T16:41:22.254Z,7.50
2023-05-28T17:10:16.244Z,2.30
2023-05-28T17:13:32.280Z,4.90
2023-05-28T17:17:04.327Z,3.90
2023-05-28T17:20:08.465Z,2.30
2023-05-28T17:23:27.507Z,4.60
2023-05-28T17:26:47.334Z,2.90
2023-05-28T17:30:03.326Z,2.73
2023-05-28T17:33:07.479Z,2.77
2023-05-28T17:36:26.551Z,5.47
2023-05-28T17:39:30.324Z,4.53
2023-05-28T17:43:05.355Z,4.93
2023-05-28T17:46:24.390Z,4.20
2023-05-28T17:49:41.432Z,4.23
2023-05-28T17:52:45.459Z,2.40
2023-05-28T17:56:01.655Z,9.27
2023-05-28T17:59:21.382Z,2.65
2023-05-28T18:02:40.430Z,6.60
2023-05-28T18:05:57.456Z,3.90
2023-05-28T18:09:04.463Z,2.63
2023-05-28T18:12:32.476Z,3.70
2023-05-28T18:15:49.713Z,4.23
2023-05-28T18:19:08.423Z,5.30
2023-05-28T18:22:12.476Z,4.10
2023-05-28T18:25:28.569Z,5.73
2023-05-28T18:28:32.486Z,7.70
2023-05-28T18:32:04.603Z,8.40
2023-05-28T18:35:08.515Z,5.10
2023-05-28T18:38:27.683Z,6.50
2023-05-28T18:41:31.584Z,6.25
2023-05-28T18:44:47.629Z,3.97
2023-05-28T18:48:07.570Z,5.30
2023-05-28T18:51:23.572Z,3.93
2023-05-28T18:54:39.581Z,5.90
2023-05-28T18:57:56.671Z,9.40
2023-05-28T19:01:00.709Z,3.60
2023-05-28T19:04:32.678Z,3.20
2023-05-28T19:07:36.883Z,5.55
2023-05-28T19:10:58.641Z,7.10
2023-05-28T19:14:05.711Z,4.37
2023-05-28T19:17:24.697Z,3.33
2023-05-28T19:20:41.731Z,5.85
2023-05-28T19:24:10.731Z,7.75
2023-05-28T19:27:14.707Z,5.25
2023-05-28T19:30:31.632Z,4.83
2023-05-28T19:33:35.657Z,5.93
2023-05-28T19:37:13.765Z,4.40
2023-05-28T19:40:29.780Z,5.57
2023-05-28T19:43:45.805Z,6.07
2023-05-28T19:46:49.777Z,7.13
2023-05-28T19:50:05.718Z,7.47
2023-05-28T19:53:22.971Z,6.43
2023-05-28T19:56:50.792Z,4.10
2023-05-28T20:00:06.808Z,7.10
2023-05-28T20:03:22.851Z,7.87
2023-05-28T20:06:38.815Z,10.10
2023-05-28T20:10:13.884Z,7.33
2023-05-28T20:13:17.892Z,8.60
2023-05-28T20:16:37.892Z,10.00
2023-05-28T20:19:41.871Z,8.50
2023-05-28T20:22:58.875Z,9.30
2023-05-28T20:26:15.817Z,5.03
2023-05-28T20:29:32.921Z,11.40
2023-05-28T20:32:37.090Z,6.03
2023-05-28T20:35:56.995Z,7.83
2023-05-28T20:39:00.929Z,8.50
2023-05-28T20:42:33.902Z,8.13
2023-05-28T20:45:37.998Z,6.80
2023-05-28T20:48:54.961Z,10.47
2023-05-28T20:52:13.977Z,9.57
2023-05-28T20:55:33.003Z,13.15
2023-05-28T20:58:49.903Z,15.47
2023-05-28T21:02:11.533Z,5.63
2023-05-28T21:05:13.044Z,10.20
2023-05-28T21:08:31.972Z,8.53
2023-05-28T21:11:36.255Z,11.47
2023-05-28T21:15:06.135Z,7.20
2023-05-28T21:18:10.042Z,8.60
2023-05-28T21:21:29.166Z,6.93
2023-05-28T21:24:32.999Z,8.13
2023-05-28T21:28:02.120Z,12.23
2023-05-28T21:31:22.142Z,11.77
2023-05-28T21:34:41.364Z,8.27
2023-05-28T21:37:45.984Z,11.80
2023-05-28T21:41:17.155Z,8.97
2023-05-28T21:44:21.133Z,8.40
2023-05-28T21:47:53.238Z,11.10
2023-05-28T21:51:10.146Z,9.00
2023-05-28T21:54:26.199Z,9.60
2023-05-28T21:57:30.080Z,8.05
2023-05-28T22:00:48.166Z,10.30
2023-05-28T22:04:18.208Z,8.40
2023-05-28T22:07:22.194Z,8.60
2023-05-28T22:10:38.173Z,7.30
2023-05-28T22:13:42.161Z,4.90
2023-05-28T22:17:01.191Z,9.53
2023-05-28T22:20:25.646Z,8.30
2023-05-28T22:23:40.194Z,11.73
2023-05-28T22:26:44.272Z,8.60
2023-05-28T22:30:00.304Z,6.03
2023-05-28T22:33:04.329Z,21.10
2023-05-28T22:36:37.918Z,7.77
2023-05-28T22:39:42.290Z,9.55
2023-05-28T22:43:01.222Z,6.07
2023-05-28T22:46:05.368Z,8.77
2023-05-28T22:49:27.262Z,7.83
2023-05-28T22:52:44.438Z,8.43
2023-05-28T22:56:00.585Z,13.40
2023-05-28T22:59:04.365Z,12.25
2023-05-28T23:02:20.529Z,11.43
2023-05-28T23:05:36.466Z,10.20
2023-05-28T23:09:11.316Z,12.95
2023-05-28T23:12:15.393Z,8.55
2023-05-28T23:15:34.618Z,6.75
2023-05-28T23:18:38.359Z,9.50
2023-05-28T23:21:57.410Z,11.83
2023-05-28T23:25:14.375Z,8.45
2023-05-28T23:28:33.411Z,12.00
2023-05-28T23:31:37.562Z,11.90
2023-05-28T23:35:00.516Z,8.35
2023-05-28T23:38:04.511Z,10.27
2023-05-28T23:41:37.481Z,11.37
2023-05-28T23:44:53.464Z,9.70
2023-05-28T23:48:12.516Z,8.37
2023-05-28T23:51:16.605Z,5.80
2023-05-28T23:54:32.556Z,13.90
2023-05-28T23:57:50.474Z,10.37
